Time;durP1;ratioP1;P1;durP2;ratioP2;P2;SDS_P1;SDS_P2;PMS_P1;PMS_P2;Temp;Humidity;BMP_temperature;BMP_pressure;BME280_temperature;BME280_humidity;BME280_pressure;Samples;Min_cycle;Max_cycle;Signal;HPM_P1;HPM_P2
2024/04/24 00:00:15;;;;;;;2.63;2.33;;;8.10;86.20;;;;;;5396533;26;19995;-70
2024/04/24 00:02:40;;;;;;;4.57;2.42;;;8.10;86.20;;;;;;5369936;26;20381;-70
2024/04/24 00:05:06;;;;;;;2.85;2.20;;;8.10;86.60;;;;;;5357836;26;20019;-70
2024/04/24 00:07:32;;;;;;;5.00;2.35;;;8.20;86.00;;;;;;5355323;26;20129;-70
2024/04/24 00:09:58;;;;;;;4.72;1.88;;;8.20;86.50;;;;;;5390728;26;20007;-70
2024/04/24 00:12:24;;;;;;;4.07;2.45;;;8.20;86.00;;;;;;5363882;26;20609;-70
2024/04/24 00:14:50;;;;;;;3.75;1.98;;;8.20;85.40;;;;;;5363034;26;20000;-70
2024/04/24 00:17:15;;;;;;;2.80;2.00;;;8.20;84.70;;;;;;5367569;26;20072;-70
2024/04/24 00:19:41;;;;;;;3.30;2.08;;;8.20;85.30;;;;;;5354589;26;19992;-70
2024/04/24 00:22:07;;;;;;;2.85;1.95;;;8.20;85.40;;;;;;5381924;26;20449;-70
2024/04/24 00:24:32;;;;;;;3.25;2.13;;;8.20;85.50;;;;;;5368839;26;20430;-70
2024/04/24 00:26:59;;;;;;;4.75;2.13;;;8.20;86.40;;;;;;5372842;26;19999;-70
2024/04/24 00:29:24;;;;;;;2.95;1.90;;;8.20;86.70;;;;;;5382064;26;19999;-70
2024/04/24 00:31:53;;;;;;;4.28;2.10;;;8.20;86.50;;;;;;5353038;26;20005;-70
2024/04/24 00:34:19;;;;;;;3.75;2.40;;;8.20;86.60;;;;;;5377001;26;20040;-70
2024/04/24 00:36:45;;;;;;;4.60;2.53;;;8.20;86.60;;;;;;5376825;26;20271;-70
2024/04/24 00:39:11;;;;;;;3.78;2.35;;;8.20;86.00;;;;;;5370023;26;20832;-70
2024/04/24 00:41:37;;;;;;;3.67;2.40;;;8.20;85.50;;;;;;5383075;26;20026;-70
2024/04/24 00:44:03;;;;;;;4.28;2.08;;;8.20;86.20;;;;;;5377817;26;20109;-70
2024/04/24 00:46:33;;;;;;;3.42;2.15;;;8.20;85.50;;;;;;5376869;26;20016;-71
2024/04/24 00:48:59;;;;;;;2.13;1.92;;;8.20;86.20;;;;;;5362731;26;20696;-70
2024/04/24 00:51:27;;;;;;;4.10;2.40;;;8.10;85.50;;;;;;5383966;26;20165;-71
2024/04/24 00:53:52;;;;;;;3.92;2.20;;;8.20;85.00;;;;;;5350777;26;20013;-71
2024/04/24 00:56:19;;;;;;;3.47;2.60;;;8.20;85.10;;;;;;5380603;26;20073;-69
2024/04/24 00:58:46;;;;;;;3.65;2.00;;;8.20;84.70;;;;;;5362230;26;20000;-70
2024/04/24 01:01:12;;;;;;;3.45;2.20;;;8.20;85.10;;;;;;5376844;26;19995;-70
2024/04/24 01:03:38;;;;;;;3.65;2.50;;;8.20;84.80;;;;;;5365775;26;20067;-70
2024/04/24 01:06:05;;;;;;;3.03;2.15;;;8.20;83.90;;;;;;5367102;26;20009;-71
2024/04/24 01:08:30;;;;;;;3.72;2.33;;;8.10;83.80;;;;;;5379880;26;20815;-71
2024/04/24 01:10:57;;;;;;;3.38;2.30;;;8.10;84.50;;;;;;5381111;26;19996;-70
2024/04/24 01:13:24;;;;;;;3.78;2.15;;;8.10;84.20;;;;;;5359414;26;20001;-70
2024/04/24 01:15:54;;;;;;;2.75;2.20;;;8.10;83.70;;;;;;5366916;26;20468;-71
2024/04/24 01:18:21;;;;;;;3.17;2.10;;;8.10;84.60;;;;;;5388736;26;20011;-71
2024/04/24 01:20:49;;;;;;;5.30;2.35;;;8.10;83.90;;;;;;5388612;26;20016;-70
2024/04/24 01:23:22;;;;;;;2.42;2.00;;;8.10;83.40;;;;;;5374012;26;20012;-70
2024/04/24 01:26:05;;;;;;;3.42;2.20;;;8.10;83.10;;;;;;5377363;26;20006;-70
2024/04/24 01:28:31;;;;;;;3.38;2.22;;;8.10;83.30;;;;;;5379536;26;20009;-70
2024/04/24 01:30:57;;;;;;;3.65;2.08;;;8.10;82.90;;;;;;5380971;26;20557;-71
2024/04/24 01:33:22;;;;;;;2.95;2.20;;;8.10;83.30;;;;;;5372719;26;20012;-70
2024/04/24 01:35:48;;;;;;;3.95;2.30;;;8.10;83.30;;;;;;5366412;26;20012;-71
2024/04/24 01:38:14;;;;;;;3.20;2.30;;;8.20;83.00;;;;;;5360070;26;20041;-71
2024/04/24 01:40:40;;;;;;;4.45;2.47;;;8.20;82.40;;;;;;5365549;26;20052;-69
2024/04/24 01:43:05;;;;;;;3.88;2.35;;;8.20;82.60;;;;;;5368014;26;20015;-70
2024/04/24 01:45:31;;;;;;;2.88;2.00;;;8.20;82.20;;;;;;5366010;26;20561;-71
2024/04/24 01:47:57;;;;;;;2.83;2.13;;;8.20;81.90;;;;;;5383697;26;20030;-71
2024/04/24 01:50:23;;;;;;;3.35;2.22;;;8.20;81.50;;;;;;5355139;26;20001;-71
2024/04/24 01:52:48;;;;;;;4.30;1.95;;;8.20;82.10;;;;;;5369095;26;20008;-71
2024/04/24 01:55:14;;;;;;;3.33;2.20;;;8.20;81.80;;;;;;5368862;26;19999;-71
2024/04/24 01:57:40;;;;;;;3.63;2.20;;;8.10;82.10;;;;;;5361445;26;20803;-71
2024/04/24 02:00:06;;;;;;;2.83;2.22;;;8.20;81.80;;;;;;5370198;26;19996;-70
2024/04/24 02:02:38;;;;;;;3.95;2.13;;;8.10;81.90;;;;;;5341257;26;19997;-70
2024/04/24 02:05:04;;;;;;;4.10;1.90;;;8.10;82.10;;;;;;5360740;26;20016;-71
2024/04/24 02:07:29;;;;;;;4.82;2.10;;;8.10;81.80;;;;;;5346736;26;19996;-71
2024/04/24 02:09:55;;;;;;;2.60;1.73;;;8.10;82.00;;;;;;5365043;26;20691;-70
2024/04/24 02:12:21;;;;;;;1.83;1.67;;;8.10;82.00;;;;;;5365841;26;22237;-71
2024/04/24 02:14:47;;;;;;;3.45;2.33;;;8.10;82.00;;;;;;5365443;26;20010;-71
2024/04/24 02:17:12;;;;;;;3.10;2.15;;;8.20;81.60;;;;;;5351319;26;20372;-71
2024/04/24 02:19:40;;;;;;;2.67;1.90;;;8.20;81.90;;;;;;5382267;26;19999;-70
2024/04/24 02:22:06;;;;;;;4.40;1.98;;;8.20;81.80;;;;;;5366690;26;20003;-71
2024/04/24 02:27:16;;;;;;;2.78;2.13;;;8.20;81.90;;;;;;5368489;26;19999;-70
2024/04/24 02:29:42;;;;;;;3.05;2.13;;;8.20;82.10;;;;;;5391111;26;20001;-71
2024/04/24 02:32:07;;;;;;;4.15;2.17;;;8.20;82.20;;;;;;5392480;26;19995;-71
2024/04/24 02:34:33;;;;;;;4.68;2.25;;;8.20;82.50;;;;;;5387378;26;20010;-71
2024/04/24 02:36:59;;;;;;;2.38;1.88;;;8.20;81.40;;;;;;5370698;26;19997;-71
2024/04/24 02:39:25;;;;;;;3.92;2.38;;;8.10;81.80;;;;;;5390378;26;19999;-71
2024/04/24 02:41:50;;;;;;;3.58;2.00;;;8.10;82.10;;;;;;5376070;26;20538;-70
2024/04/24 02:44:16;;;;;;;5.28;2.40;;;8.10;82.40;;;;;;5373781;26;20008;-71
2024/04/24 02:46:42;;;;;;;2.85;2.20;;;8.10;82.60;;;;;;5370661;26;20568;-71
2024/04/24 02:49:08;;;;;;;3.47;2.38;;;8.10;81.50;;;;;;5368889;26;20008;-71
2024/04/24 02:51:33;;;;;;;3.78;2.30;;;8.00;81.40;;;;;;5368088;26;20442;-71
2024/04/24 02:53:59;;;;;;;3.45;2.30;;;8.10;81.90;;;;;;5354064;26;20001;-71
2024/04/24 02:56:25;;;;;;;3.15;2.22;;;8.10;82.50;;;;;;5376048;26;19997;-71
2024/04/24 02:58:50;;;;;;;5.80;2.15;;;8.10;82.20;;;;;;5359425;26;19993;-71
2024/04/24 03:01:16;;;;;;;3.92;2.05;;;8.00;82.20;;;;;;5349005;26;20461;-68
2024/04/24 03:03:42;;;;;;;3.45;2.20;;;8.00;82.00;;;;;;5354860;26;20478;-71
2024/04/24 03:06:08;;;;;;;3.03;2.00;;;8.00;82.10;;;;;;5387149;26;20036;-71
2024/04/24 03:08:34;;;;;;;3.65;2.08;;;8.00;81.70;;;;;;5385965;26;20095;-70
2024/04/24 03:11:00;;;;;;;3.88;2.40;;;8.10;82.20;;;;;;5377306;26;20456;-70
2024/04/24 03:13:26;;;;;;;4.10;2.75;;;8.10;82.20;;;;;;5371327;26;19997;-71
2024/04/24 03:15:52;;;;;;;3.63;2.08;;;8.10;82.70;;;;;;5374052;26;20680;-71
2024/04/24 03:18:18;;;;;;;4.05;2.38;;;8.10;82.30;;;;;;5382262;26;20014;-71
2024/04/24 03:20:44;;;;;;;2.78;2.40;;;8.10;83.30;;;;;;5362050;26;20015;-70
2024/04/24 03:23:10;;;;;;;2.75;2.13;;;8.10;82.80;;;;;;5361513;26;20089;-71
2024/04/24 03:25:36;;;;;;;4.38;2.45;;;8.10;83.70;;;;;;5386798;26;20364;-70
2024/04/24 03:28:01;;;;;;;4.88;2.53;;;8.00;83.90;;;;;;5366084;26;20016;-68
2024/04/24 03:30:27;;;;;;;3.47;2.30;;;8.00;84.20;;;;;;5374274;26;20024;-69
2024/04/24 03:32:53;;;;;;;2.63;1.92;;;8.00;84.60;;;;;;5380637;26;20013;-68
2024/04/24 03:35:18;;;;;;;4.35;2.45;;;8.00;85.30;;;;;;5368559;26;19995;-68
2024/04/24 03:37:44;;;;;;;5.10;2.17;;;8.00;85.40;;;;;;5375042;26;20008;-68
2024/04/24 03:40:10;;;;;;;3.55;2.28;;;8.10;85.00;;;;;;5378389;26;20010;-68
2024/04/24 03:42:36;;;;;;;3.17;2.47;;;8.10;85.00;;;;;;5358831;26;20471;-68
2024/04/24 03:45:02;;;;;;;2.58;2.10;;;8.00;85.10;;;;;;5376682;26;19997;-69
2024/04/24 03:47:28;;;;;;;3.72;1.98;;;8.10;85.40;;;;;;5369074;26;20003;-69
2024/04/24 03:49:53;;;;;;;4.28;2.20;;;8.00;85.40;;;;;;5375536;26;19997;-68
2024/04/24 03:52:20;;;;;;;3.80;2.67;;;8.10;85.70;;;;;;5366474;26;19996;-68
2024/04/24 03:54:46;;;;;;;3.60;2.17;;;8.00;85.40;;;;;;5376886;26;20012;-68
2024/04/24 03:57:12;;;;;;;5.40;2.38;;;8.00;85.20;;;;;;5362323;26;20013;-68
2024/04/24 03:59:38;;;;;;;3.83;2.05;;;8.00;85.00;;;;;;5381127;26;20004;-68
2024/04/24 04:02:03;;;;;;;2.60;2.13;;;8.00;85.20;;;;;;5374822;26;19992;-68
2024/04/24 04:04:29;;;;;;;5.18;2.30;;;8.00;85.30;;;;;;5367935;26;19997;-68
2024/04/24 04:06:55;;;;;;;4.43;2.22;;;8.00;85.30;;;;;;5364063;26;19997;-68
2024/04/24 04:09:21;;;;;;;4.43;2.50;;;8.00;85.40;;;;;;5355857;26;20566;-68
2024/04/24 04:11:46;;;;;;;2.90;1.70;;;8.00;85.70;;;;;;5355963;26;19995;-68
2024/04/24 04:14:12;;;;;;;2.63;1.85;;;8.00;85.60;;;;;;5361517;26;20391;-68
2024/04/24 04:16:38;;;;;;;5.72;2.47;;;8.00;85.70;;;;;;5379278;26;20131;-68
2024/04/24 04:19:04;;;;;;;4.75;1.83;;;8.00;85.50;;;;;;5364007;26;20455;-68
2024/04/24 04:21:29;;;;;;;3.17;2.17;;;8.00;85.10;;;;;;5360541;26;19992;-68
2024/04/24 04:23:55;;;;;;;3.83;2.05;;;8.00;84.90;;;;;;5369474;26;20910;-69
2024/04/24 04:26:21;;;;;;;3.55;1.83;;;8.00;84.60;;;;;;5371671;26;20003;-68
2024/04/24 04:28:46;;;;;;;3.10;2.10;;;8.00;85.00;;;;;;5370036;26;20007;-68
2024/04/24 04:31:13;;;;;;;2.85;2.08;;;8.00;84.90;;;;;;5359802;26;20578;-68
2024/04/24 04:33:39;;;;;;;2.92;2.40;;;8.00;84.80;;;;;;5378258;26;19996;-68
2024/04/24 04:36:05;;;;;;;3.10;2.20;;;8.00;84.60;;;;;;5372817;26;20045;-68
2024/04/24 04:38:31;;;;;;;3.20;1.98;;;8.00;84.60;;;;;;5375176;26;20720;-68
2024/04/24 04:40:57;;;;;;;3.95;2.13;;;8.00;84.80;;;;;;5373030;26;20000;-68
2024/04/24 04:43:23;;;;;;;2.55;2.00;;;8.00;85.10;;;;;;5361664;26;20000;-68
2024/04/24 04:45:49;;;;;;;8.43;2.25;;;8.00;85.30;;;;;;5365717;26;20821;-69
2024/04/24 04:48:16;;;;;;;4.05;2.25;;;8.00;84.80;;;;;;5376258;26;19996;-68
2024/04/24 04:50:42;;;;;;;4.45;2.33;;;8.10;84.60;;;;;;5344231;26;20015;-68
2024/04/24 04:53:08;;;;;;;3.47;1.88;;;8.10;84.90;;;;;;5355065;26;20004;-68
2024/04/24 04:55:34;;;;;;;2.38;1.65;;;8.10;84.90;;;;;;5384608;26;20003;-69
2024/04/24 04:58:03;;;;;;;2.80;1.80;;;8.10;84.90;;;;;;5370097;26;20423;-68
2024/04/24 05:00:29;;;;;;;3.10;1.85;;;8.10;85.60;;;;;;5375140;26;20002;-68
2024/04/24 05:02:55;;;;;;;2.92;2.17;;;8.20;85.20;;;;;;5372205;26;19997;-68
2024/04/24 05:05:20;;;;;;;4.05;2.30;;;8.20;85.30;;;;;;5374009;26;20012;-68
2024/04/24 05:07:46;;;;;;;5.15;2.20;;;8.20;85.50;;;;;;5377830;26;20352;-68
2024/04/24 05:10:12;;;;;;;3.83;2.28;;;8.20;85.40;;;;;;5370879;26;20008;-68
2024/04/24 05:12:38;;;;;;;4.93;2.17;;;8.30;86.00;;;;;;5389092;26;20014;-68
2024/04/24 05:15:04;;;;;;;4.32;2.28;;;8.20;86.10;;;;;;5374544;26;20008;-68
2024/04/24 05:17:31;;;;;;;4.38;2.28;;;8.30;85.30;;;;;;5375091;26;20006;-68
2024/04/24 05:19:57;;;;;;;3.33;2.22;;;8.30;85.50;;;;;;5389604;26;20800;-68
2024/04/24 05:22:23;;;;;;;4.32;2.40;;;8.20;85.70;;;;;;5371175;26;20027;-68
2024/04/24 05:24:49;;;;;;;3.75;2.10;;;8.20;85.40;;;;;;5355781;26;20345;-69
2024/04/24 05:29:59;;;;;;;2.40;1.88;;;8.20;85.00;;;;;;5383929;26;20136;-68
2024/04/24 05:32:25;;;;;;;2.67;2.08;;;8.20;85.60;;;;;;5388360;26;20858;-69
2024/04/24 05:34:50;;;;;;;5.05;2.45;;;8.30;85.80;;;;;;5373831;26;20406;-68
2024/04/24 05:37:16;;;;;;;3.25;2.13;;;8.30;86.00;;;;;;5381231;26;19996;-68
2024/04/24 05:39:42;;;;;;;4.63;2.28;;;8.40;86.00;;;;;;5362425;26;19997;-68
2024/04/24 05:42:08;;;;;;;3.05;2.13;;;8.40;85.50;;;;;;5361689;26;20036;-68
2024/04/24 05:44:34;;;;;;;4.80;2.17;;;8.40;85.40;;;;;;5375339;26;20006;-68
2024/04/24 05:47:02;;;;;;;2.75;2.00;;;8.50;84.70;;;;;;5382371;26;20003;-69
2024/04/24 05:49:28;;;;;;;3.70;2.10;;;8.50;85.10;;;;;;5357924;26;20005;-69
2024/04/24 05:51:54;;;;;;;3.45;2.28;;;8.50;85.40;;;;;;5368887;26;20372;-68
2024/04/24 05:54:19;;;;;;;3.78;2.35;;;8.50;85.20;;;;;;5376176;26;20007;-68
2024/04/24 05:56:45;;;;;;;3.40;2.28;;;8.60;84.40;;;;;;5349892;26;20003;-69
2024/04/24 05:59:11;;;;;;;3.13;2.08;;;8.50;83.90;;;;;;5364613;26;19991;-69
2024/04/24 06:01:37;;;;;;;2.78;2.08;;;8.50;83.50;;;;;;5358477;26;20016;-68
2024/04/24 06:04:03;;;;;;;3.17;2.38;;;8.50;84.00;;;;;;5396399;26;20343;-68
2024/04/24 06:06:28;;;;;;;5.13;2.40;;;8.60;84.20;;;;;;5377537;26;20695;-68
2024/04/24 06:08:54;;;;;;;3.05;2.55;;;8.50;84.20;;;;;;5368576;26;20468;-68
2024/04/24 06:11:20;;;;;;;2.55;2.00;;;8.60;84.10;;;;;;5379061;26;20848;-68
2024/04/24 06:13:45;;;;;;;3.67;2.22;;;8.60;84.30;;;;;;5357824;26;20529;-68
2024/04/24 06:16:11;;;;;;;6.43;2.75;;;8.60;84.60;;;;;;5357436;26;20001;-68
2024/04/24 06:18:37;;;;;;;3.25;2.35;;;8.60;84.00;;;;;;5364866;26;20010;-68
2024/04/24 06:21:03;;;;;;;5.57;2.47;;;8.60;84.70;;;;;;5366151;26;20530;-68
2024/04/24 06:23:29;;;;;;;3.20;2.35;;;8.70;84.60;;;;;;5364793;26;20681;-68
2024/04/24 06:25:54;;;;;;;2.55;2.05;;;8.70;85.30;;;;;;5357875;26;20012;-68
2024/04/24 06:28:20;;;;;;;3.28;2.13;;;8.70;85.30;;;;;;5365180;26;20006;-67
2024/04/24 06:30:46;;;;;;;4.22;2.42;;;8.70;84.70;;;;;;5364497;26;20011;-68
2024/04/24 06:33:12;;;;;;;3.10;2.22;;;8.70;84.70;;;;;;5377247;26;20031;-68
2024/04/24 06:35:38;;;;;;;2.80;1.98;;;8.80;85.10;;;;;;5351253;26;19997;-68
2024/04/24 06:38:04;;;;;;;4.22;2.33;;;8.80;85.40;;;;;;5369438;26;20015;-68
2024/04/24 06:40:29;;;;;;;3.60;2.28;;;8.80;85.50;;;;;;5368979;26;19997;-68
2024/04/24 06:42:55;;;;;;;4.55;2.42;;;8.90;85.80;;;;;;5383338;26;19996;-69
2024/04/24 06:45:21;;;;;;;4.53;2.30;;;9.00;85.80;;;;;;5372063;26;20068;-69
2024/04/24 06:47:47;;;;;;;2.70;2.15;;;9.00;84.80;;;;;;5377584;26;20678;-68
2024/04/24 06:50:13;;;;;;;2.50;2.10;;;9.10;85.60;;;;;;5357367;26;20470;-68
2024/04/24 06:52:39;;;;;;;3.15;2.30;;;9.00;84.60;;;;;;5365942;26;20098;-68
2024/04/24 06:55:05;;;;;;;3.50;2.22;;;9.00;84.60;;;;;;5359217;26;20005;-69
2024/04/24 06:57:31;;;;;;;3.85;2.38;;;9.00;85.50;;;;;;5359820;26;20012;-68
2024/04/24 06:59:57;;;;;;;6.03;3.15;;;9.00;85.40;;;;;;5377180;26;20912;-69
2024/04/24 07:02:22;;;;;;;5.05;2.67;;;9.00;85.30;;;;;;5362732;26;20074;-68
2024/04/24 07:04:48;;;;;;;2.97;2.42;;;9.10;86.20;;;;;;5379895;26;20016;-68
2024/04/24 07:07:14;;;;;;;2.92;2.30;;;9.20;85.90;;;;;;5369970;26;20078;-68
2024/04/24 07:09:40;;;;;;;4.75;2.15;;;9.30;84.60;;;;;;5383622;26;20597;-68
2024/04/24 07:12:05;;;;;;;3.80;2.45;;;9.30;83.20;;;;;;5366813;26;19999;-69
2024/04/24 07:14:31;;;;;;;5.82;2.88;;;9.40;83.40;;;;;;5379100;26;20040;-68
2024/04/24 07:16:57;;;;;;;3.75;2.50;;;9.40;84.00;;;;;;5371084;26;20027;-69
2024/04/24 07:19:23;;;;;;;6.00;2.30;;;9.50;84.30;;;;;;5379638;26;20012;-68
2024/04/24 07:21:48;;;;;;;5.22;2.80;;;9.50;83.50;;;;;;5381744;26;20451;-68
2024/04/24 07:24:14;;;;;;;3.83;2.60;;;9.50;83.20;;;;;;5345301;26;20377;-69
2024/04/24 07:26:41;;;;;;;6.93;4.32;;;9.50;84.10;;;;;;5371791;26;20041;-74
2024/04/24 07:29:07;;;;;;;10.60;5.97;;;9.60;84.20;;;;;;5371774;26;20003;-70
2024/04/24 07:31:33;;;;;;;6.15;3.83;;;9.60;84.20;;;;;;5362122;26;19996;-70
2024/04/24 07:34:00;;;;;;;4.93;3.45;;;9.70;84.70;;;;;;5365354;26;20015;-70
2024/04/24 07:36:26;;;;;;;4.47;3.20;;;9.80;84.30;;;;;;5368313;26;20008;-70
2024/04/24 07:38:52;;;;;;;6.57;4.07;;;9.80;83.40;;;;;;5362899;26;20062;-70
2024/04/24 07:41:18;;;;;;;4.15;3.05;;;9.90;82.60;;;;;;5381185;26;20013;-69
2024/04/24 07:43:45;;;;;;;7.32;4.15;;;9.90;81.60;;;;;;5372152;26;20010;-70
2024/04/24 07:46:11;;;;;;;9.50;4.93;;;9.90;83.20;;;;;;5386784;26;19996;-71
2024/04/24 07:48:37;;;;;;;6.45;4.30;;;9.90;82.60;;;;;;5365265;26;20007;-71
2024/04/24 07:51:03;;;;;;;7.90;5.13;;;9.90;80.60;;;;;;5349540;26;20000;-71
2024/04/24 07:53:29;;;;;;;7.50;3.75;;;9.80;81.60;;;;;;5390492;26;20600;-70
2024/04/24 07:55:54;;;;;;;9.05;5.88;;;9.70;81.80;;;;;;5375288;26;20001;-70
2024/04/24 07:58:20;;;;;;;7.28;5.15;;;9.80;83.10;;;;;;5366400;26;20009;-69
2024/04/24 08:00:46;;;;;;;8.10;4.35;;;9.90;83.50;;;;;;5362950;26;20336;-71
2024/04/24 08:03:12;;;;;;;7.40;4.97;;;10.00;84.00;;;;;;5368176;26;20014;-70
2024/04/24 08:05:37;;;;;;;8.60;3.90;;;10.10;82.40;;;;;;5360255;26;20130;-70
2024/04/24 08:08:04;;;;;;;7.30;4.47;;;10.10;81.10;;;;;;5369012;26;19997;-70
2024/04/24 08:10:30;;;;;;;9.15;4.43;;;10.10;81.40;;;;;;5369091;26;20018;-70
2024/04/24 08:12:55;;;;;;;7.85;3.88;;;10.00;81.90;;;;;;5390119;26;20837;-69
2024/04/24 08:15:21;;;;;;;7.43;4.75;;;9.90;81.70;;;;;;5380335;26;20011;-67
2024/04/24 08:17:47;;;;;;;7.95;4.05;;;9.90;82.00;;;;;;5363711;26;20016;-72
2024/04/24 08:20:14;;;;;;;9.13;4.60;;;9.90;82.50;;;;;;5364851;26;20005;-70
2024/04/24 08:22:41;;;;;;;16.10;5.25;;;9.80;81.60;;;;;;5360089;26;20004;-70
2024/04/24 08:25:07;;;;;;;6.88;5.45;;;9.90;83.10;;;;;;5373022;26;22107;-72
2024/04/24 08:27:32;;;;;;;12.38;7.28;;;9.90;82.30;;;;;;5355739;26;20004;-69
2024/04/24 08:29:58;;;;;;;10.35;7.32;;;10.00;83.60;;;;;;5370598;26;19997;-70
2024/04/24 08:32:24;;;;;;;16.13;9.50;;;10.00;83.30;;;;;;5366642;26;20572;-70
2024/04/24 08:34:50;;;;;;;10.20;7.32;;;10.10;82.90;;;;;;5375648;26;20573;-70
2024/04/24 08:37:16;;;;;;;12.40;7.55;;;10.10;83.20;;;;;;5365151;26;20000;-70
2024/04/24 08:39:41;;;;;;;16.50;10.45;;;10.10;81.90;;;;;;5363215;26;20015;-69
2024/04/24 08:42:08;;;;;;;14.20;8.18;;;10.00;83.90;;;;;;5348499;26;20826;-71
2024/04/24 08:44:35;;;;;;;10.60;7.10;;;10.10;83.20;;;;;;5369450;26;20001;-69
2024/04/24 08:47:03;;;;;;;13.07;6.72;;;10.30;83.20;;;;;;5381946;26;20001;-70
2024/04/24 08:49:33;;;;;;;9.88;6.95;;;10.40;83.20;;;;;;5370655;26;19999;-70
2024/04/24 08:52:01;;;;;;;12.00;7.53;;;10.50;83.00;;;;;;5376357;26;20080;-70
2024/04/24 08:54:29;;;;;;;9.50;6.20;;;10.60;82.10;;;;;;5370732;26;20000;-70
2024/04/24 08:57:03;;;;;;;9.98;6.38;;;10.60;82.30;;;;;;5344670;26;20505;-71
2024/04/24 08:59:31;;;;;;;9.88;5.65;;;10.60;82.40;;;;;;5359660;26;20104;-71
2024/04/24 09:02:08;;;;;;;10.07;5.57;;;10.60;82.70;;;;;;5366167;26;20001;-70
2024/04/24 09:04:42;;;;;;;6.22;4.82;;;10.80;83.30;;;;;;5392660;26;20076;-70
2024/04/24 09:07:08;;;;;;;7.75;5.63;;;11.10;82.10;;;;;;5352614;26;20004;-72
2024/04/24 09:09:35;;;;;;;8.32;6.00;;;11.30;80.30;;;;;;5366829;26;20003;-71
2024/04/24 09:12:07;;;;;;;6.55;4.97;;;11.50;83.60;;;;;;5363124;26;20049;-69
2024/04/24 09:14:34;;;;;;;7.00;5.10;;;11.80;81.80;;;;;;5377606;26;20010;-70
2024/04/24 09:17:06;;;;;;;9.07;5.65;;;12.20;80.50;;;;;;5368478;26;20800;-71
2024/04/24 09:19:32;;;;;;;10.25;5.38;;;12.50;79.60;;;;;;5366415;26;20823;-70
2024/04/24 09:21:59;;;;;;;11.00;7.05;;;12.80;78.00;;;;;;5394767;26;20011;-70
2024/04/24 09:24:25;;;;;;;10.13;7.13;;;12.90;76.90;;;;;;5377656;26;20004;-70
2024/04/24 09:26:51;;;;;;;14.05;7.70;;;12.90;77.60;;;;;;5377220;26;20008;-70
2024/04/24 09:29:17;;;;;;;13.52;8.48;;;12.90;76.20;;;;;;5346395;26;20019;-70
2024/04/24 09:31:43;;;;;;;11.98;7.07;;;13.00;77.30;;;;;;5374743;26;20001;-71
2024/04/24 09:34:09;;;;;;;8.10;5.15;;;13.10;76.70;;;;;;5378273;26;20003;-71
2024/04/24 09:36:41;;;;;;;7.75;4.85;;;13.10;77.10;;;;;;5349769;26;20001;-68
2024/04/24 09:39:07;;;;;;;11.40;5.75;;;13.00;76.90;;;;;;5365003;26;20007;-71
2024/04/24 09:41:34;;;;;;;8.40;5.72;;;12.90;75.70;;;;;;5365894;26;20006;-71
2024/04/24 09:44:01;;;;;;;11.18;5.75;;;12.90;75.80;;;;;;5357009;26;19997;-68
2024/04/24 09:46:28;;;;;;;8.88;6.18;;;12.90;75.60;;;;;;5367857;26;20078;-69
2024/04/24 09:48:53;;;;;;;7.03;4.75;;;12.80;76.50;;;;;;5363005;26;19997;-69
2024/04/24 09:51:19;;;;;;;8.65;5.45;;;12.80;77.00;;;;;;5370503;26;20011;-68
2024/04/24 09:53:45;;;;;;;9.20;5.38;;;12.70;74.90;;;;;;5388328;26;20007;-70
2024/04/24 09:56:16;;;;;;;7.75;5.43;;;12.40;75.90;;;;;;5369112;26;20012;-69
2024/04/24 09:58:48;;;;;;;9.00;5.65;;;11.90;78.10;;;;;;5358363;26;20016;-69
2024/04/24 10:01:16;;;;;;;8.48;5.80;;;11.90;78.10;;;;;;5356510;26;20073;-70
2024/04/24 10:03:45;;;;;;;7.70;5.40;;;12.00;77.70;;;;;;5369525;26;20073;-69
2024/04/24 10:06:15;;;;;;;11.18;6.50;;;12.10;78.30;;;;;;5378638;26;20423;-70
2024/04/24 10:08:43;;;;;;;10.38;5.93;;;12.20;77.60;;;;;;5347448;26;20814;-70
2024/04/24 10:11:13;;;;;;;7.82;6.07;;;12.20;76.60;;;;;;5354546;26;19999;-71
2024/04/24 10:13:41;;;;;;;8.82;5.93;;;12.20;75.90;;;;;;5362763;26;20008;-67
2024/04/24 10:16:08;;;;;;;10.38;6.03;;;12.20;75.60;;;;;;5365385;26;20461;-68
2024/04/24 10:18:35;;;;;;;9.32;6.63;;;12.00;76.00;;;;;;5402844;26;19996;-68
2024/04/24 10:21:05;;;;;;;8.73;6.13;;;12.10;76.90;;;;;;5372098;26;20006;-70
2024/04/24 10:23:31;;;;;;;8.10;5.93;;;12.10;76.60;;;;;;5372774;26;19996;-70
2024/04/24 10:25:58;;;;;;;9.27;5.65;;;12.20;77.20;;;;;;5375726;26;19996;-70
2024/04/24 10:28:26;;;;;;;9.75;6.35;;;12.30;73.90;;;;;;5364947;26;19993;-70
2024/04/24 10:30:56;;;;;;;8.02;5.50;;;12.10;73.60;;;;;;5384098;26;20018;-71
2024/04/24 10:33:23;;;;;;;8.25;5.32;;;11.90;75.40;;;;;;5365766;26;20000;-70
2024/04/24 10:35:49;;;;;;;8.43;5.57;;;11.90;75.80;;;;;;5371039;26;20347;-69
2024/04/24 10:38:18;;;;;;;6.47;5.07;;;12.00;76.50;;;;;;5378223;26;20014;-68
2024/04/24 10:40:48;;;;;;;7.07;4.78;;;12.00;76.60;;;;;;5371833;26;20439;-67
2024/04/24 10:43:15;;;;;;;6.72;4.53;;;12.10;74.60;;;;;;5379025;26;20011;-68
2024/04/24 10:45:41;;;;;;;7.28;4.60;;;12.10;73.60;;;;;;5376828;26;20277;-68
2024/04/24 10:48:11;;;;;;;7.63;5.45;;;12.00;74.80;;;;;;5375024;26;20007;-68
2024/04/24 10:50:38;;;;;;;7.57;4.97;;;12.00;75.10;;;;;;5361652;26;20052;-68
2024/04/24 10:53:05;;;;;;;5.88;4.10;;;11.90;74.30;;;;;;5363746;26;20001;-68
2024/04/24 10:55:31;;;;;;;4.88;3.83;;;12.00;73.50;;;;;;5371705;26;20003;-68
2024/04/24 10:57:57;;;;;;;6.25;4.32;;;12.10;73.60;;;;;;5376397;26;20001;-68
2024/04/24 11:00:24;;;;;;;6.60;3.97;;;12.30;73.80;;;;;;5372739;26;20004;-68
2024/04/24 11:02:52;;;;;;;9.15;4.55;;;12.30;73.90;;;;;;5371360;26;20012;-68
2024/04/24 11:05:19;;;;;;;6.50;4.60;;;12.30;73.30;;;;;;5384642;26;20010;-68
2024/04/24 11:07:59;;;;;;;6.85;4.57;;;12.40;74.00;;;;;;5364100;26;19997;-68
2024/04/24 11:10:26;;;;;;;10.48;5.75;;;12.80;74.40;;;;;;5374799;26;20015;-68
2024/04/24 11:12:52;;;;;;;8.77;5.65;;;12.90;71.20;;;;;;5361584;26;20011;-68
2024/04/24 11:15:22;;;;;;;10.35;5.97;;;12.70;72.60;;;;;;5361399;26;20000;-68
2024/04/24 11:17:48;;;;;;;7.22;5.55;;;12.70;74.00;;;;;;5375501;26;20826;-68
2024/04/24 11:20:37;;;;;;;6.82;5.60;;;12.70;73.90;;;;;;5391505;26;20450;-68
2024/04/24 11:23:09;;;;;;;8.13;5.28;;;12.80;72.00;;;;;;5357182;26;20819;-68
2024/04/24 11:25:36;;;;;;;7.43;5.15;;;12.70;72.40;;;;;;5359578;26;20031;-68
2024/04/24 11:28:01;;;;;;;8.07;5.50;;;12.50;72.10;;;;;;5356381;26;19999;-68
2024/04/24 11:30:27;;;;;;;7.70;5.43;;;12.50;72.00;;;;;;5374586;26;20072;-68
2024/04/24 11:32:54;;;;;;;9.20;5.53;;;12.50;72.40;;;;;;5393354;26;20455;-68
2024/04/24 11:35:24;;;;;;;7.30;5.03;;;12.50;71.80;;;;;;5379630;26;20008;-68
2024/04/24 11:37:51;;;;;;;7.50;5.50;;;12.60;72.30;;;;;;5375615;26;20032;-68
2024/04/24 11:40:18;;;;;;;7.60;5.25;;;12.60;71.80;;;;;;5375113;26;20093;-68
2024/04/24 11:42:50;;;;;;;8.45;5.13;;;12.70;72.20;;;;;;5370353;26;20005;-68
2024/04/24 11:45:16;;;;;;;7.55;5.10;;;12.70;72.50;;;;;;5359215;26;20011;-68
2024/04/24 11:47:47;;;;;;;8.32;5.07;;;12.70;71.30;;;;;;5384590;26;20003;-68
2024/04/24 11:50:13;;;;;;;10.38;5.03;;;12.60;72.10;;;;;;5368751;26;19997;-68
2024/04/24 11:52:42;;;;;;;11.40;5.60;;;12.70;71.90;;;;;;5334041;26;20080;-68
2024/04/24 11:55:08;;;;;;;7.25;5.43;;;12.70;70.70;;;;;;5381442;26;20326;-68
2024/04/24 11:57:37;;;;;;;5.60;4.70;;;12.80;70.20;;;;;;5366810;26;20011;-69
2024/04/24 12:00:05;;;;;;;5.32;4.65;;;13.00;72.80;;;;;;5381836;26;20018;-68
2024/04/24 12:02:34;;;;;;;7.25;5.28;;;13.20;72.20;;;;;;5375092;26;20001;-68
2024/04/24 12:05:05;;;;;;;7.22;5.03;;;13.40;69.90;;;;;;5364581;26;20004;-68
2024/04/24 12:07:32;;;;;;;7.97;4.72;;;13.60;68.40;;;;;;5378297;26;20000;-68
2024/04/24 12:09:58;;;;;;;6.75;4.70;;;13.50;68.50;;;;;;5351215;26;20333;-66
2024/04/24 12:12:24;;;;;;;6.70;5.18;;;13.40;68.30;;;;;;5375680;26;20044;-68
2024/04/24 12:14:56;;;;;;;7.60;5.00;;;13.30;68.90;;;;;;5371328;26;19996;-73
2024/04/24 12:17:22;;;;;;;6.20;4.60;;;13.40;69.20;;;;;;5366711;26;20041;-67
2024/04/24 12:19:48;;;;;;;6.35;5.00;;;13.40;68.80;;;;;;5370372;26;20344;-66
2024/04/24 12:22:14;;;;;;;5.53;3.47;;;13.40;69.00;;;;;;5369800;26;19997;-66
2024/04/24 12:24:40;;;;;;;8.40;5.13;;;13.40;67.90;;;;;;5366194;26;19997;-67
2024/04/24 12:27:06;;;;;;;5.55;4.03;;;13.30;69.00;;;;;;5366527;26;20059;-67
2024/04/24 12:29:32;;;;;;;6.18;4.38;;;13.20;66.70;;;;;;5363319;26;19991;-67
2024/04/24 12:31:58;;;;;;;3.97;3.25;;;13.20;68.60;;;;;;5383341;26;20000;-67
2024/04/24 12:34:24;;;;;;;9.70;4.15;;;13.30;68.00;;;;;;5360889;26;20003;-66
2024/04/24 12:36:51;;;;;;;8.73;5.25;;;13.30;68.70;;;;;;5364667;26;20429;-65
2024/04/24 12:39:17;;;;;;;5.15;4.35;;;13.30;68.20;;;;;;5360010;26;20972;-66
2024/04/24 12:41:43;;;;;;;8.82;4.55;;;13.30;69.50;;;;;;5348169;26;20041;-67
2024/04/24 12:44:09;;;;;;;7.38;4.95;;;13.40;68.50;;;;;;5377187;26;20002;-67
2024/04/24 12:46:34;;;;;;;7.28;4.38;;;13.50;68.60;;;;;;5384058;26;20007;-66
2024/04/24 12:49:02;;;;;;;5.50;4.13;;;13.60;68.20;;;;;;5360202;26;20001;-66
2024/04/24 12:51:29;;;;;;;10.05;4.00;;;13.60;67.80;;;;;;5360268;26;20011;-67
2024/04/24 12:53:54;;;;;;;4.85;3.45;;;13.60;67.60;;;;;;5364941;26;19993;-67